Time;durP1;ratioP1;P1;durP2;ratioP2;P2;SDS_P1;SDS_P2;PMS_P1;PMS_P2;Temp;Humidity;BMP_temperature;BMP_pressure;BME280_temperature;BME280_humidity;BME280_pressure;Samples;Min_cycle;Max_cycle;Signal;HPM_P1;HPM_P2
2023/11/03 00:04:01;;;;;;;5.20;2.80;;;;;;;14.74;100.00;97335.98;185308;1232;43670;-69
2023/11/03 00:08:08;;;;;;;2.40;1.90;;;;;;;14.86;100.00;97342.39;185407;1232;44181;-69
2023/11/03 00:12:38;;;;;;;;;;;;;;;14.96;100.00;97344.66;187036;1232;59190;-70
2023/11/03 00:16:40;;;;;;;;;;;;;;;15.04;100.00;97314.73;187273;1233;43377;-70
2023/11/03 00:20:51;;;;;;;5.60;1.70;;;;;;;15.04;100.00;97285.45;187189;1232;43282;-69
2023/11/03 00:24:53;;;;;;;2.90;1.00;;;;;;;15.06;100.00;97246.84;187215;1233;43696;-68
2023/11/03 00:28:55;;;;;;;3.50;1.30;;;;;;;15.15;100.00;97230.84;187259;1233;42926;-70
2023/11/03 00:32:57;;;;;;;1.90;1.20;;;;;;;15.20;100.00;97221.98;187165;1232;58347;-68
2023/11/03 00:36:59;;;;;;;5.10;1.60;;;;;;;15.31;100.00;97238.45;187194;1234;42982;-68
2023/11/03 00:41:01;;;;;;;1.20;1.10;;;;;;;15.36;100.00;97259.71;187251;1233;43677;-67
2023/11/03 00:45:05;;;;;;;3.30;1.70;;;;;;;15.31;100.00;97272.55;187216;1234;42975;-68
2023/11/03 00:49:08;;;;;;;1.70;1.30;;;;;;;15.24;100.00;97261.42;187135;1233;43538;-68
2023/11/03 00:53:19;;;;;;;4.20;1.80;;;;;;;15.20;100.00;97267.75;187244;1233;59144;-68
2023/11/03 00:57:21;;;;;;;2.80;1.60;;;;;;;15.21;100.00;97238.81;187243;1234;42961;-68
2023/11/03 01:01:23;;;;;;;2.40;1.70;;;;;;;15.18;100.00;97240.92;187210;1233;43657;-67
2023/11/03 01:05:30;;;;;;;1.90;1.20;;;;;;;15.16;100.00;97255.81;187222;1234;44142;-68
2023/11/03 01:09:32;;;;;;;1.30;1.20;;;;;;;15.11;100.00;97278.91;187205;1232;43602;-68
2023/11/03 01:13:42;;;;;;;2.10;1.40;;;;;;;15.13;100.00;97292.73;187233;1234;58140;-68
2023/11/03 01:17:43;;;;;;;9.00;2.00;;;;;;;15.16;100.00;97283.91;187221;1232;43749;-68
2023/11/03 01:21:46;;;;;;;1.60;0.90;;;;;;;15.17;100.00;97305.04;187272;1232;43624;-67
2023/11/03 01:25:50;;;;;;;1.20;1.10;;;;;;;15.21;100.00;97288.06;187113;1233;43658;-67
2023/11/03 01:29:52;;;;;;;1.20;1.10;;;;;;;15.22;100.00;97280.48;187256;1234;43619;-68
2023/11/03 01:33:53;;;;;;;3.90;1.70;;;;;;;15.26;100.00;97274.70;187138;1233;58619;-67
2023/11/03 01:37:56;;;;;;;2.60;1.70;;;;;;;15.26;100.00;97281.77;187195;1233;43985;-67
2023/11/03 01:41:59;;;;;;;3.40;2.00;;;;;;;15.28;100.00;97291.92;187248;1233;43601;-67
2023/11/03 01:46:02;;;;;;;5.50;1.80;;;;;;;15.32;100.00;97288.16;187230;1235;43641;-67
2023/11/03 01:50:04;;;;;;;6.10;1.80;;;;;;;15.31;100.00;97279.56;187049;1232;44055;-67
2023/11/03 01:54:35;;;;;;;5.30;1.80;;;;;;;15.31;100.00;97276.89;187224;1233;57826;-67
2023/11/03 01:58:36;;;;;;;5.70;1.50;;;;;;;15.26;100.00;97271.98;187268;1233;42959;-68
2023/11/03 02:02:45;;;;;;;3.70;2.50;;;;;;;15.22;100.00;97273.36;187327;1233;42923;-67
2023/11/03 02:06:46;;;;;;;3.10;1.60;;;;;;;15.19;100.00;97296.15;187222;1233;42985;-67
2023/11/03 02:10:48;;;;;;;0.70;0.60;;;;;;;15.19;100.00;97324.97;187255;1236;42922;-68
2023/11/03 02:14:51;;;;;;;0.80;0.80;;;;;;;14.58;100.00;97324.17;187193;1233;57946;-68
2023/11/03 02:18:54;;;;;;;1.80;0.70;;;;;;;13.99;100.00;97323.55;187012;1233;43887;-68
2023/11/03 02:22:56;;;;;;;2.80;0.60;;;;;;;13.67;100.00;97316.36;187264;1233;42926;-69
2023/11/03 02:26:58;;;;;;;3.00;1.30;;;;;;;13.39;100.00;97315.95;187197;1233;43107;-70
2023/11/03 02:31:00;;;;;;;1.40;1.00;;;;;;;13.08;100.00;97317.67;187261;1236;43073;-69
2023/11/03 02:35:03;;;;;;;2.50;1.90;;;;;;;13.03;100.00;97319.88;187039;1234;57963;-70
2023/11/03 02:39:05;;;;;;;2.60;2.10;;;;;;;12.99;100.00;97321.38;187213;1233;42989;-70
2023/11/03 02:43:07;;;;;;;2.30;1.70;;;;;;;13.02;100.00;97326.44;187204;1234;42950;-70
2023/11/03 02:47:08;;;;;;;5.50;3.00;;;;;;;13.07;100.00;97329.14;187198;1232;43321;-70
2023/11/03 02:51:11;;;;;;;5.20;2.40;;;;;;;13.12;100.00;97328.81;187208;1233;42975;-69
2023/11/03 02:55:19;;;;;;;3.60;2.40;;;;;;;13.16;100.00;97324.51;187221;1236;57894;-69
2023/11/03 02:59:21;;;;;;;3.00;1.80;;;;;;;13.21;100.00;97336.52;187168;1233;42957;-70
2023/11/03 03:03:29;;;;;;;2.00;1.80;;;;;;;13.24;100.00;97344.74;187241;1233;43328;-69
2023/11/03 03:07:31;;;;;;;2.00;1.40;;;;;;;13.28;100.00;97350.02;187248;1233;43486;-68
2023/11/03 03:11:33;;;;;;;2.00;1.90;;;;;;;13.32;100.00;97347.56;187093;1233;43623;-68
2023/11/03 03:15:35;;;;;;;3.20;2.00;;;;;;;13.34;100.00;97347.02;186969;1233;57319;-69
2023/11/03 03:19:36;;;;;;;3.40;1.70;;;;;;;13.35;100.00;97349.11;187263;1234;42964;-69
2023/11/03 03:23:38;;;;;;;3.10;1.50;;;;;;;13.40;100.00;97354.35;187233;1233;42880;-70
2023/11/03 03:27:39;;;;;;;1.60;1.50;;;;;;;13.41;100.00;97351.34;187177;1236;43686;-67
2023/11/03 03:31:41;;;;;;;2.80;1.80;;;;;;;13.41;100.00;97348.66;187191;1233;43697;-70
2023/11/03 03:35:46;;;;;;;2.20;1.60;;;;;;;13.45;100.00;97348.29;187206;1236;59149;-68
2023/11/03 03:39:47;;;;;;;2.90;1.80;;;;;;;13.50;100.00;97350.97;187118;1233;43582;-69
2023/11/03 03:43:56;;;;;;;2.20;2.10;;;;;;;13.49;100.00;97351.48;187177;1233;43651;-68
2023/11/03 03:47:58;;;;;;;1.90;1.70;;;;;;;13.46;100.00;97354.77;187197;1233;43020;-69
2023/11/03 03:51:59;;;;;;;2.20;1.50;;;;;;;13.46;100.00;97350.51;187236;1233;43647;-69
2023/11/03 03:56:01;;;;;;;3.40;1.60;;;;;;;13.45;100.00;97353.96;187237;1233;58118;-68
2023/11/03 04:00:04;;;;;;;2.40;1.70;;;;;;;13.43;100.00;97356.59;187173;1234;43785;-69
2023/11/03 04:04:33;;;;;;;2.20;1.70;;;;;;;13.45;100.00;97362.33;187022;1234;43575;-68
2023/11/03 04:08:35;;;;;;;2.90;1.80;;;;;;;13.49;100.00;97365.69;187189;1234;43726;-68
2023/11/03 04:13:02;;;;;;;78.00;14.10;;;;;;;13.52;100.00;97371.23;187336;1233;43667;-67
2023/11/03 04:17:05;;;;;;;3.00;2.20;;;;;;;13.65;100.00;97372.06;187211;1233;57515;-68
2023/11/03 04:21:37;;;;;;;2.60;2.00;;;;;;;13.69;100.00;97376.46;187169;1233;43000;-68
2023/11/03 04:25:39;;;;;;;2.60;2.00;;;;;;;13.70;100.00;97379.32;187047;1233;44121;-67
2023/11/03 04:29:41;;;;;;;3.50;2.00;;;;;;;13.75;100.00;97374.54;186994;1234;43231;-67
2023/11/03 04:33:43;;;;;;;2.50;2.30;;;;;;;13.79;100.00;97380.92;187161;1233;43043;-67
2023/11/03 04:37:45;;;;;;;3.50;2.70;;;;;;;13.72;100.00;97386.59;187208;1234;57561;-68
2023/11/03 04:41:46;;;;;;;2.70;1.70;;;;;;;13.70;100.00;97386.33;187214;1234;43721;-66
2023/11/03 04:45:48;;;;;;;4.20;2.80;;;;;;;13.62;100.00;97387.24;187024;1236;43434;-67
2023/11/03 04:49:50;;;;;;;2.10;1.90;;;;;;;13.56;100.00;97396.07;187018;1233;42984;-66
2023/11/03 04:53:51;;;;;;;3.30;3.00;;;;;;;13.51;100.00;97404.41;187205;1234;43966;-67
2023/11/03 04:57:53;;;;;;;3.20;2.90;;;;;;;13.45;100.00;97399.88;187287;1233;57790;-66
2023/11/03 05:01:59;;;;;;;5.50;3.00;;;;;;;13.40;100.00;97390.04;187231;1233;43623;-67
2023/11/03 05:06:00;;;;;;;3.20;2.50;;;;;;;13.31;100.00;97382.13;187226;1234;43628;-67
2023/11/03 05:10:54;;;;;;;5.90;2.50;;;;;;;13.11;100.00;97379.08;187151;1233;43020;-67
2023/11/03 05:14:56;;;;;;;2.50;1.90;;;;;;;12.91;100.00;97379.70;186987;1234;43658;-67
2023/11/03 05:18:57;;;;;;;3.60;2.80;;;;;;;12.78;100.00;97380.77;187259;1235;58286;-67
2023/11/03 05:23:00;;;;;;;3.10;2.60;;;;;;;12.68;100.00;97383.52;186770;1233;266213;-66
2023/11/03 05:27:02;;;;;;;5.20;4.00;;;;;;;12.66;100.00;97375.79;187197;1235;43030;-66
2023/11/03 05:31:05;;;;;;;3.50;2.50;;;;;;;12.75;100.00;97344.29;187069;1235;43008;-66
2023/11/03 05:35:07;;;;;;;3.00;2.30;;;;;;;12.84;100.00;97314.64;186972;1234;42936;-66
2023/11/03 05:39:08;;;;;;;6.00;3.40;;;;;;;12.88;100.00;97305.55;187096;1234;58088;-66
2023/11/03 05:43:10;;;;;;;12.40;10.40;;;;;;;12.90;100.00;97289.70;187245;1235;43095;-66
2023/11/03 05:47:12;;;;;;;15.90;13.60;;;;;;;12.91;100.00;97257.35;187262;1234;42896;-66
2023/11/03 05:51:14;;;;;;;8.30;4.60;;;;;;;12.91;100.00;97253.71;187238;1233;42908;-67
2023/11/03 05:55:15;;;;;;;6.20;4.50;;;;;;;12.88;100.00;97324.30;187276;1233;42975;-67
2023/11/03 05:59:17;;;;;;;3.40;3.10;;;;;;;12.80;100.00;97317.41;187225;1235;57886;-68
2023/11/03 06:03:19;;;;;;;5.10;3.80;;;;;;;12.76;100.00;97300.00;186718;1235;43690;-68
2023/11/03 06:07:21;;;;;;;4.00;3.20;;;;;;;12.64;100.00;97315.89;187151;1235;42982;-68
2023/11/03 06:11:22;;;;;;;4.30;2.90;;;;;;;12.52;100.00;97363.02;186880;1235;43754;-69
2023/11/03 06:15:24;;;;;;;3.60;3.30;;;;;;;12.39;100.00;97392.19;186911;1235;43360;-69
2023/11/03 06:19:26;;;;;;;6.40;3.60;;;;;;;12.30;100.00;97387.04;186912;1235;57839;-69
2023/11/03 06:23:27;;;;;;;7.90;5.90;;;;;;;12.26;100.00;97394.59;186830;1235;43085;-68
2023/11/03 06:27:29;;;;;;;9.10;5.50;;;;;;;12.30;100.00;97406.15;186891;1235;42948;-69
2023/11/03 06:31:34;;;;;;;4.00;3.60;;;;;;;12.43;100.00;97407.35;186406;1240;43025;-69
2023/11/03 06:36:29;;;;;;;12.60;9.70;;;;;;;12.58;100.00;97412.11;186338;1238;42947;-69
2023/11/03 06:40:45;;;;;;;6.90;6.20;;;;;;;12.64;100.00;97413.08;186397;1238;57769;-69
2023/11/03 06:44:47;;;;;;;7.20;5.70;;;;;;;12.69;100.00;97412.61;186299;1237;43689;-68
2023/11/03 06:48:50;;;;;;;6.80;5.40;;;;;;;12.78;100.00;97410.37;186335;1242;43622;-70
2023/11/03 06:52:51;;;;;;;5.00;4.30;;;;;;;12.87;100.00;97430.23;186354;1239;43588;-69
2023/11/03 06:56:53;;;;;;;7.80;4.60;;;;;;;13.00;100.00;97451.98;186390;1237;42933;-69
2023/11/03 07:00:55;;;;;;;7.10;4.90;;;;;;;12.98;100.00;97466.00;186393;1238;58228;-69
2023/11/03 07:04:57;;;;;;;6.30;5.30;;;;;;;12.97;100.00;97473.02;186343;1238;43645;-69
2023/11/03 07:08:59;;;;;;;16.90;15.20;;;;;;;13.06;100.00;97462.60;186404;1238;43746;-69
2023/11/03 07:13:02;;;;;;;12.90;8.60;;;;;;;13.15;100.00;97449.13;186484;1238;43726;-69
2023/11/03 07:17:04;;;;;;;7.60;6.40;;;;;;;13.24;100.00;97420.39;186379;1241;43043;-70
2023/11/03 07:21:10;;;;;;;8.90;8.10;;;;;;;13.26;100.00;97411.14;186368;1238;58431;-69
2023/11/03 07:25:41;;;;;;;;;;;;;;;13.26;100.00;97402.52;186380;1239;42971;-69
2023/11/03 07:29:43;;;;;;;9.80;8.80;;;;;;;13.25;100.00;97401.90;186363;1238;43491;-71
2023/11/03 07:33:45;;;;;;;12.90;11.80;;;;;;;13.23;100.00;97417.31;186318;1238;43613;-68
2023/11/03 07:37:47;;;;;;;9.20;8.30;;;;;;;13.25;100.00;97428.27;186353;1238;42946;-69
2023/11/03 07:41:49;;;;;;;9.60;7.90;;;;;;;13.17;100.00;97440.54;186382;1241;57911;-69
2023/11/03 07:45:50;;;;;;;5.40;4.90;;;;;;;13.17;100.00;97454.63;186342;1238;43562;-68
2023/11/03 07:49:53;;;;;;;6.10;5.10;;;;;;;13.23;100.00;97454.52;186333;1238;43674;-68
2023/11/03 07:53:55;;;;;;;7.70;6.80;;;;;;;13.28;100.00;97459.92;186367;1238;43062;-67
2023/11/03 07:57:59;;;;;;;6.40;5.70;;;;;;;13.32;100.00;97456.13;186375;1238;42970;-67
2023/11/03 08:02:02;;;;;;;8.10;6.50;;;;;;;13.27;100.00;97463.01;186268;1238;58240;-67
2023/11/03 08:06:06;;;;;;;6.80;4.70;;;;;;;13.26;100.00;97464.60;186393;1238;42984;-67
2023/11/03 08:10:11;;;;;;;5.30;4.80;;;;;;;13.25;100.00;97469.86;186280;1238;42975;-67
2023/11/03 08:14:13;;;;;;;8.00;6.70;;;;;;;13.34;100.00;97464.70;186340;1238;43025;-66
2023/11/03 08:18:18;;;;;;;6.70;6.00;;;;;;;13.44;100.00;97450.94;186359;1238;43687;-67
2023/11/03 08:22:19;;;;;;;4.90;4.40;;;;;;;13.56;100.00;97432.02;186373;1238;58065;-66
2023/11/03 08:26:21;;;;;;;8.80;4.40;;;;;;;13.65;100.00;97422.39;185897;1243;43604;-66
2023/11/03 08:30:23;;;;;;;9.60;5.90;;;;;;;13.71;100.00;97426.54;185850;1243;43811;-66
2023/11/03 08:34:26;;;;;;;8.40;5.60;;;;;;;13.69;100.00;97424.59;184957;1251;43006;-66
2023/11/03 08:38:28;;;;;;;7.20;5.60;;;;;;;13.71;100.00;97424.61;185325;1250;43423;-66
2023/11/03 08:42:29;;;;;;;9.90;7.60;;;;;;;13.69;100.00;97423.96;185304;1250;58099;-65
2023/11/03 08:46:34;;;;;;;9.10;6.30;;;;;;;13.69;100.00;97426.52;185233;1251;43556;-66
2023/11/03 08:50:37;;;;;;;7.10;5.60;;;;;;;13.76;100.00;97414.72;185280;1250;42954;-66
2023/11/03 08:54:39;;;;;;;8.90;5.80;;;;;;;13.84;100.00;97412.65;184935;1251;43660;-66
2023/11/03 08:58:41;;;;;;;6.00;5.40;;;;;;;13.85;100.00;97423.58;184821;1249;43433;-66
2023/11/03 09:02:44;;;;;;;7.00;6.10;;;;;;;13.78;100.00;97423.16;184907;1251;58575;-66
2023/11/03 09:06:46;;;;;;;6.10;5.50;;;;;;;13.75;100.00;97414.27;184681;1249;43060;-66
2023/11/03 09:10:49;;;;;;;6.60;5.90;;;;;;;13.76;100.00;97423.80;185303;1250;42974;-65
2023/11/03 09:14:51;;;;;;;8.00;5.80;;;;;;;13.78;100.00;97423.34;185325;1249;43065;-66
2023/11/03 09:18:54;;;;;;;6.40;5.60;;;;;;;13.83;100.00;97414.48;185316;1250;42929;-65
2023/11/03 09:22:56;;;;;;;5.80;4.10;;;;;;;13.90;100.00;97415.64;184954;1249;57946;-65
2023/11/03 09:26:57;;;;;;;4.50;4.10;;;;;;;13.88;100.00;97412.49;184962;1249;43714;-65
2023/11/03 09:32:27;;;;;;;3.70;3.30;;;;;;;13.81;100.00;97409.09;183452;1257;43843;-64
2023/11/03 09:36:29;;;;;;;7.10;5.50;;;;;;;13.78;100.00;97406.24;182942;1259;43628;-65
2023/11/03 09:40:33;;;;;;;5.10;4.70;;;;;;;13.75;100.00;97406.46;182414;1264;43657;-64
2023/11/03 09:44:37;;;;;;;10.30;7.40;;;;;;;13.73;100.00;97397.06;182376;1262;58009;-64
2023/11/03 09:48:41;;;;;;;10.00;7.20;;;;;;;13.73;100.00;97400.42;182942;1256;43033;-65
2023/11/03 09:52:49;;;;;;;10.90;7.80;;;;;;;13.73;100.00;97400.59;183160;1256;42923;-65
2023/11/03 09:56:53;;;;;;;9.40;7.80;;;;;;;13.77;100.00;97398.71;183081;1257;43374;-64
2023/11/03 10:00:59;;;;;;;11.30;9.00;;;;;;;13.81;100.00;97382.45;183158;1257;42990;-66
2023/11/03 10:05:07;;;;;;;12.40;8.60;;;;;;;13.89;100.00;97374.90;183032;1255;59128;-64
2023/11/03 10:09:16;;;;;;;9.00;6.00;;;;;;;13.92;100.00;97366.61;183471;1257;43021;-64
2023/11/03 10:13:20;;;;;;;9.90;6.40;;;;;;;13.97;100.00;97361.00;183426;1257;43624;-63
2023/11/03 10:17:22;;;;;;;11.00;7.30;;;;;;;14.02;100.00;97352.05;182760;1257;43125;-63
2023/11/03 10:21:25;;;;;;;6.90;5.20;;;;;;;14.05;100.00;97347.67;182347;1257;43688;-64
2023/11/03 10:25:57;;;;;;;7.20;5.00;;;;;;;14.07;100.00;97351.47;182220;1264;57246;-65
2023/11/03 10:30:05;;;;;;;7.80;6.40;;;;;;;14.09;100.00;97357.13;182238;1264;43448;-66
2023/11/03 10:35:37;;;;;;;6.00;5.40;;;;;;;14.05;100.00;97356.05;175462;1289;567194;-81
2023/11/03 10:39:41;;;;;;;6.30;5.40;;;;;;;13.82;100.00;97345.09;179445;1252;57857;-81
2023/11/03 10:43:56;;;;;;;9.30;6.00;;;;;;;13.63;100.00;97341.75;180171;1253;89012;-66
2023/11/03 10:48:11;;;;;;;9.00;6.70;;;;;;;13.36;100.00;97337.77;180681;1252;336738;-66
2023/11/03 10:52:48;;;;;;;10.70;7.30;;;;;;;13.26;100.00;97334.67;181074;1254;44054;-65
2023/11/03 10:56:53;;;;;;;9.90;6.90;;;;;;;13.15;100.00;97320.79;181120;1251;43643;-64
2023/11/03 11:01:41;;;;;;;8.30;5.30;;;;;;;13.01;100.00;97313.20;181080;1254;57931;-64
2023/11/03 11:05:48;;;;;;;6.80;5.40;;;;;;;12.82;100.00;97312.90;181300;1254;45886;-64
2023/11/03 11:09:58;;;;;;;5.30;4.50;;;;;;;12.68;100.00;97305.54;181149;1254;45064;-65
2023/11/03 11:14:37;;;;;;;8.40;4.80;;;;;;;12.65;100.00;97306.45;181015;1255;46136;-65
2023/11/03 11:19:10;;;;;;;6.40;5.80;;;;;;;12.64;100.00;97297.55;181108;1251;45954;-65
2023/11/03 11:23:17;;;;;;;14.50;10.90;;;;;;;12.63;100.00;97294.69;181083;1254;58390;-64
2023/11/03 11:27:24;;;;;;;9.70;8.00;;;;;;;12.67;100.00;97292.54;181032;1251;46009;-64
2023/11/03 11:31:28;;;;;;;7.90;6.00;;;;;;;12.63;100.00;97285.25;181220;1251;44668;-65
2023/11/03 11:35:42;;;;;;;8.90;6.30;;;;;;;12.52;100.00;97291.25;181049;1250;44993;-65
2023/11/03 11:39:46;;;;;;;16.30;8.40;;;;;;;12.39;100.00;97287.08;181065;1253;46027;-65
2023/11/03 11:43:50;;;;;;;12.80;8.00;;;;;;;12.20;100.00;97280.64;181119;1252;57751;-65
2023/11/03 11:48:07;;;;;;;8.40;6.40;;;;;;;12.10;100.00;97289.52;181071;1254;45978;-66
2023/11/03 11:52:10;;;;;;;10.80;6.30;;;;;;;11.96;100.00;97298.00;181045;1252;45894;-65
2023/11/03 11:56:21;;;;;;;7.70;4.60;;;;;;;11.79;100.00;97303.44;181066;1255;45001;-65
2023/11/03 12:00:25;;;;;;;6.30;5.10;;;;;;;11.56;100.00;97304.94;181007;1251;44623;-66
2023/11/03 12:04:29;;;;;;;4.90;3.60;;;;;;;11.38;100.00;97310.71;180820;1253;57457;-65
2023/11/03 12:08:34;;;;;;;10.10;5.00;;;;;;;11.29;100.00;97306.33;180810;1254;45925;-66
2023/11/03 12:12:37;;;;;;;6.60;3.30;;;;;;;11.26;100.00;97305.95;181029;1252;45843;-66
2023/11/03 12:16:41;;;;;;;6.10;3.60;;;;;;;11.13;100.00;97304.34;181065;1254;45755;-65
2023/11/03 12:21:06;;;;;;;7.30;3.30;;;;;;;11.15;100.00;97295.91;181003;1254;45886;-65
2023/11/03 12:25:10;;;;;;;6.00;3.90;;;;;;;11.11;100.00;97291.70;181000;1254;58665;-65
2023/11/03 12:29:29;;;;;;;11.80;5.40;;;;;;;11.05;100.00;97297.24;180989;1255;44934;-65
2023/11/03 12:33:36;;;;;;;5.30;3.70;;;;;;;10.97;100.00;97310.40;181122;1253;43528;-66
2023/11/03 12:37:43;;;;;;;4.70;3.20;;;;;;;10.91;100.00;97311.84;181003;1254;43809;-65
2023/11/03 12:42:07;;;;;;;7.90;4.50;;;;;;;10.80;100.00;97303.33;181084;1251;43760;-66
2023/11/03 12:46:10;;;;;;;6.70;4.10;;;;;;;10.74;100.00;97291.29;181293;1254;58613;-66
2023/11/03 12:50:23;;;;;;;10.40;4.50;;;;;;;10.74;100.00;97280.05;181082;1254;44103;-65
2023/11/03 12:54:29;;;;;;;7.00;4.90;;;;;;;10.74;100.00;97284.59;181059;1255;43662;-64
2023/11/03 12:58:36;;;;;;;7.70;3.80;;;;;;;10.78;100.00;97288.81;181056;1253;44554;-63
2023/11/03 13:02:49;;;;;;;8.30;4.80;;;;;;;10.74;100.00;97287.45;181271;1254;43551;-64
2023/11/03 13:06:57;;;;;;;10.00;4.50;;;;;;;10.74;100.00;97288.71;181216;1252;60042;-63
2023/11/03 13:11:06;;;;;;;5.70;4.60;;;;;;;10.70;100.00;97283.15;181054;1253;44520;-63
2023/11/03 13:15:11;;;;;;;8.80;5.60;;;;;;;10.71;100.00;97276.77;180849;1255;45989;-64
2023/11/03 13:19:20;;;;;;;5.60;2.90;;;;;;;10.71;100.00;97287.84;180867;1254;43965;-64
2023/11/03 13:23:23;;;;;;;7.20;3.70;;;;;;;10.62;100.00;97268.77;180985;1253;44347;-65
2023/11/03 13:27:29;;;;;;;7.50;4.70;;;;;;;10.53;100.00;97260.49;180768;1254;58013;-65
2023/11/03 13:32:03;;;;;;;10.30;5.20;;;;;;;10.55;100.00;97261.55;181249;1254;46089;-63
2023/11/03 13:36:12;;;;;;;6.10;4.80;;;;;;;10.57;100.00;97274.72;181055;1253;44055;-58
2023/11/03 13:40:17;;;;;;;6.10;5.50;;;;;;;10.55;100.00;97276.56;181189;1254;45974;-57
2023/11/03 13:44:21;;;;;;;10.90;5.40;;;;;;;10.52;100.00;97287.27;181086;1255;44420;-57
2023/11/03 13:48:30;;;;;;;10.60;5.80;;;;;;;10.50;100.00;97295.84;181176;1254;58340;-57
2023/11/03 13:52:34;;;;;;;8.60;4.10;;;;;;;10.57;100.00;97297.34;181027;1252;45918;-57
2023/11/03 13:56:38;;;;;;;14.10;9.90;;;;;;;10.61;100.00;97312.61;181069;1253;44565;-57
2023/11/03 14:00:43;;;;;;;14.60;7.90;;;;;;;10.62;100.00;97306.04;181033;1254;47586;-58
2023/11/03 14:04:47;;;;;;;7.00;4.00;;;;;;;10.50;100.00;97304.21;181261;1251;43574;-58
2023/11/03 14:08:54;;;;;;;5.60;4.40;;;;;;;10.32;100.00;97298.56;181199;1254;59013;-57
2023/11/03 14:12:57;;;;;;;16.70;7.80;;;;;;;10.15;100.00;97294.06;180864;1254;46069;-57
2023/11/03 14:17:07;;;;;;;13.10;7.00;;;;;;;10.03;100.00;97279.63;181186;1254;43841;-58
2023/11/03 14:21:13;;;;;;;17.60;7.20;;;;;;;9.89;100.00;97269.55;181191;1254;44595;-57
2023/11/03 14:25:27;;;;;;;17.30;8.60;;;;;;;9.87;100.00;97266.10;180995;1254;45909;-57
2023/11/03 14:29:31;;;;;;;20.90;9.20;;;;;;;9.81;100.00;97280.02;181065;1253;58398;-57
2023/11/03 14:33:51;;;;;;;16.40;10.00;;;;;;;9.81;100.00;97298.33;181032;1253;43717;-57
2023/11/03 14:37:59;;;;;;;13.50;8.00;;;;;;;9.78;100.00;97306.64;181151;1254;43542;-57
2023/11/03 14:42:06;;;;;;;15.90;8.10;;;;;;;9.77;100.00;97286.98;181165;1254;44458;-57
2023/11/03 14:46:09;;;;;;;11.70;6.00;;;;;;;9.80;100.00;97274.92;181117;1255;45199;-57
2023/11/03 14:50:35;;;;;;;9.10;4.00;;;;;;;9.67;100.00;97265.33;181100;1254;57197;-58
2023/11/03 14:54:42;;;;;;;6.10;3.50;;;;;;;9.61;100.00;97275.56;181066;1252;45284;-58
2023/11/03 14:58:48;;;;;;;7.40;2.70;;;;;;;9.54;100.00;97274.66;181019;1251;44579;-58
2023/11/03 15:02:51;;;;;;;11.60;6.20;;;;;;;9.42;100.00;97277.84;181212;1252;45842;-60
2023/11/03 15:23:46;;;;;;;5.30;3.70;;;;;;;9.52;100.00;97286.17;180929;1265;579852;-58
2023/11/03 15:27:50;;;;;;;10.60;3.50;;;;;;;9.56;100.00;97291.64;183634;1247;58666;-58
2023/11/03 15:31:53;;;;;;;7.50;3.80;;;;;;;9.55;100.00;97289.73;184713;1240;45922;-58
2023/11/03 15:43:17;;;;;;;9.20;4.70;;;;;;;9.48;100.00;97273.20;176277;1286;566861;-58
2023/11/03 15:47:22;;;;;;;9.70;4.90;;;;;;;9.42;100.00;97278.05;181010;1253;58472;-58
2023/11/03 15:51:29;;;;;;;7.70;5.00;;;;;;;9.40;100.00;97286.27;180906;1253;43660;-57
2023/11/03 15:55:34;;;;;;;12.70;10.10;;;;;;;9.36;100.00;97296.61;180970;1250;199353;-58
2023/11/03 15:59:38;;;;;;;12.40;9.10;;;;;;;9.30;100.00;97291.51;181109;1251;43767;-58
2023/11/03 16:03:48;;;;;;;39.60;19.40;;;;;;;9.25;100.00;97287.35;181267;1250;43719;-59
2023/11/03 16:08:43;;;;;;;18.10;11.60;;;;;;;9.19;100.00;97288.47;181090;1251;58410;-59
2023/11/03 16:12:47;;;;;;;14.70;7.50;;;;;;;9.11;100.00;97295.45;181210;1250;45986;-58
2023/11/03 16:16:51;;;;;;;11.70;7.80;;;;;;;9.10;100.00;97291.37;181395;1250;43577;-59
2023/11/03 16:20:54;;;;;;;12.10;7.20;;;;;;;9.06;100.00;97275.17;181212;1250;43755;-59
2023/11/03 16:25:00;;;;;;;13.20;9.60;;;;;;;9.10;100.00;97275.91;181367;1250;43557;-60
2023/11/03 16:29:04;;;;;;;6.50;5.00;;;;;;;9.13;100.00;97283.86;181187;1250;59155;-60
2023/11/03 16:33:11;;;;;;;11.00;6.90;;;;;;;9.16;100.00;97291.46;181214;1250;46078;-59
2023/11/03 16:37:15;;;;;;;9.70;6.90;;;;;;;9.21;100.00;97306.96;181145;1250;45939;-59
2023/11/03 16:41:25;;;;;;;11.50;6.30;;;;;;;9.13;100.00;97307.43;181339;1250;44572;-60
2023/11/03 16:45:30;;;;;;;16.20;5.60;;;;;;;9.05;100.00;97305.74;181188;1251;45949;-60
2023/11/03 16:49:36;;;;;;;11.10;6.00;;;;;;;9.01;100.00;97297.58;180982;1251;57136;-61
2023/11/03 16:53:41;;;;;;;13.10;6.70;;;;;;;8.91;100.00;97296.33;181078;1251;45069;-62
2023/11/03 16:57:45;;;;;;;9.60;6.60;;;;;;;8.93;100.00;97290.89;181182;1250;46032;-62
2023/11/03 17:02:22;;;;;;;13.60;6.10;;;;;;;8.92;100.00;97287.56;181250;1250;43888;-62
2023/11/03 17:06:26;;;;;;;11.60;6.30;;;;;;;8.82;100.00;97291.68;181247;1250;44293;-64
2023/11/03 17:10:35;;;;;;;20.10;7.00;;;;;;;8.77;100.00;97295.38;181422;1250;58006;-63
2023/11/03 17:14:39;;;;;;;10.20;5.60;;;;;;;8.67;100.00;97294.77;180974;1251;44644;-63
2023/11/03 17:18:47;;;;;;;9.40;6.60;;;;;;;8.62;100.00;97290.98;181207;1250;44542;-63
2023/11/03 17:22:54;;;;;;;8.90;5.00;;;;;;;8.53;100.00;97290.91;181140;1251;45238;-61
2023/11/03 17:26:59;;;;;;;13.90;6.00;;;;;;;8.42;100.00;97290.30;181452;1250;43911;-62
2023/11/03 17:31:04;;;;;;;12.70;4.50;;;;;;;8.41;100.00;97294.36;181159;1251;60141;-63
2023/11/03 17:35:10;;;;;;;9.00;3.50;;;;;;;8.34;100.00;97302.73;181182;1250;44504;-62
2023/11/03 17:39:15;;;;;;;13.10;4.80;;;;;;;8.28;100.00;97311.12;181220;1251;43805;-64
2023/11/03 17:43:19;;;;;;;3.90;2.60;;;;;;;8.26;100.00;97312.33;181310;1250;44586;-62
2023/11/03 17:47:29;;;;;;;9.40;3.90;;;;;;;8.33;100.00;97323.88;181195;1251;45951;-63
2023/11/03 17:51:37;;;;;;;6.20;2.70;;;;;;;8.39;100.00;97344.23;181349;1250;60002;-63
2023/11/03 17:55:42;;;;;;;7.00;2.90;;;;;;;8.45;100.00;97356.05;181291;1250;44699;-63
2023/11/03 17:59:46;;;;;;;4.70;3.20;;;;;;;8.40;100.00;97349.02;181135;1252;43888;-62
2023/11/03 18:03:50;;;;;;;5.50;2.40;;;;;;;8.32;100.00;97342.36;181226;1251;44482;-62
2023/11/03 18:07:57;;;;;;;14.60;6.10;;;;;;;8.26;100.00;97340.27;181166;1251;45149;-62
2023/11/03 18:12:03;;;;;;;7.90;3.20;;;;;;;8.23;100.00;97348.17;181186;1251;58426;-61
2023/11/03 18:16:09;;;;;;;6.00;3.40;;;;;;;8.24;100.00;97371.57;181064;1251;43702;-62
2023/11/03 18:20:16;;;;;;;4.50;3.10;;;;;;;8.36;100.00;97372.11;181202;1250;45914;-62
2023/11/03 18:24:20;;;;;;;;;;;;;;;8.38;100.00;97365.13;180984;1250;43395;-61
2023/11/03 18:28:25;;;;;;;4.90;3.00;;;;;;;8.39;100.00;97371.57;181166;1251;43278;-63
2023/11/03 18:32:31;;;;;;;13.70;3.30;;;;;;;8.50;100.00;97374.02;181181;1250;59462;-62
2023/11/03 18:36:37;;;;;;;6.30;3.50;;;;;;;8.52;100.00;97378.86;181162;1251;43792;-62
2023/11/03 18:40:41;;;;;;;10.00;5.40;;;;;;;8.54;100.00;97389.54;181145;1254;45999;-60
2023/11/03 18:44:45;;;;;;;14.10;6.80;;;;;;;8.57;100.00;97394.17;181279;1252;45969;-61
2023/11/03 18:48:49;;;;;;;11.70;5.40;;;;;;;8.58;100.00;97389.45;181331;1250;45007;-62
2023/11/03 18:52:57;;;;;;;10.60;6.40;;;;;;;8.62;100.00;97398.21;181163;1250;58844;-61
2023/11/03 18:57:04;;;;;;;11.00;6.90;;;;;;;8.68;100.00;97402.80;181024;1253;43758;-62
2023/11/03 19:01:32;;;;;;;9.20;5.20;;;;;;;8.72;100.00;97406.38;181243;1250;44215;-62
2023/11/03 19:05:56;;;;;;;6.80;4.40;;;;;;;8.69;100.00;97412.14;181134;1251;45055;-62
2023/11/03 19:10:07;;;;;;;6.50;3.80;;;;;;;8.70;100.00;97422.52;181018;1250;44353;-61
2023/11/03 19:14:15;;;;;;;;;;;;;;;8.65;100.00;97429.79;181158;1253;58195;-61
2023/11/03 19:18:20;;;;;;;3.00;2.60;;;;;;;8.69;100.00;97442.73;181156;1250;44553;-61
2023/11/03 19:22:25;;;;;;;4.30;3.10;;;;;;;8.73;100.00;97458.75;180834;1250;45896;-60